Time;durP1;ratioP1;P1;durP2;ratioP2;P2;SDS_P1;SDS_P2;PMS_P1;PMS_P2;Temp;Humidity;BMP_temperature;BMP_pressure;BME280_temperature;BME280_humidity;BME280_pressure;Samples;Min_cycle;Max_cycle;Signal;HPM_P1;HPM_P2
2022/06/28 00:00:17;;;;;;;9.38;8.05;;;14.30;99.90;;;;;;5086191;28;20036;-74
2022/06/28 00:02:43;;;;;;;8.98;7.15;;;14.30;99.90;;;;;;5069570;28;20042;-74
2022/06/28 00:05:09;;;;;;;8.88;7.75;;;14.20;99.90;;;;;;5066992;28;20036;-74
2022/06/28 00:07:35;;;;;;;7.95;7.15;;;14.20;99.90;;;;;;5067960;28;20094;-74
2022/06/28 00:10:01;;;;;;;9.48;8.10;;;14.20;99.90;;;;;;5089694;28;20461;-74
2022/06/28 00:12:26;;;;;;;8.73;7.65;;;14.20;99.90;;;;;;5089284;28;20040;-74
2022/06/28 00:17:36;;;;;;;8.75;7.05;;;14.70;99.90;;;;;;5066682;28;20101;-73
2022/06/28 00:20:04;;;;;;;8.40;7.57;;;15.00;99.90;;;;;;5087676;28;20052;-73
2022/06/28 00:22:29;;;;;;;8.65;7.72;;;14.00;99.90;;;;;;5050513;28;20048;-73
2022/06/28 00:24:55;;;;;;;7.72;6.75;;;14.00;99.90;;;;;;5072533;28;20060;-74
2022/06/28 00:27:21;;;;;;;10.27;8.65;;;14.00;99.90;;;;;;5067754;28;20049;-73
2022/06/28 00:29:46;;;;;;;8.65;7.57;;;13.90;99.90;;;;;;5070369;28;20075;-74
2022/06/28 00:32:12;;;;;;;9.73;6.63;;;13.90;99.90;;;;;;5068982;28;20048;-73
2022/06/28 00:34:38;;;;;;;8.43;6.70;;;13.90;99.90;;;;;;5082265;28;20036;-74
2022/06/28 00:37:04;;;;;;;8.18;7.38;;;13.90;99.90;;;;;;5089303;28;20090;-74
2022/06/28 00:39:30;;;;;;;8.35;7.45;;;13.90;99.90;;;;;;5070178;28;20036;-74
2022/06/28 00:41:56;;;;;;;9.32;7.47;;;13.90;99.90;;;;;;5086379;28;20115;-73
2022/06/28 00:44:22;;;;;;;18.92;7.68;;;15.00;99.90;;;;;;5086588;28;20032;-74
2022/06/28 00:46:48;;;;;;;8.30;6.95;;;13.80;99.90;;;;;;5069060;28;20028;-74
2022/06/28 00:49:14;;;;;;;8.63;6.88;;;13.80;99.90;;;;;;5069540;28;20078;-74
2022/06/28 00:51:40;;;;;;;8.40;7.28;;;14.00;99.90;;;;;;5049199;28;20094;-73
2022/06/28 00:54:07;;;;;;;8.15;7.28;;;13.80;99.90;;;;;;5088705;28;20502;-73
2022/06/28 00:56:33;;;;;;;8.68;6.13;;;13.70;99.90;;;;;;5071689;28;20032;-73
2022/06/28 00:58:58;;;;;;;7.63;6.05;;;13.70;99.90;;;;;;5052257;28;20498;-73
2022/06/28 01:01:25;;;;;;;7.90;6.32;;;13.70;99.90;;;;;;5081864;28;20068;-74
2022/06/28 01:03:52;;;;;;;9.07;6.38;;;13.70;99.90;;;;;;5069281;28;20051;-74
2022/06/28 01:06:18;;;;;;;11.10;6.30;;;13.70;99.90;;;;;;5085758;28;20043;-73
2022/06/28 01:08:46;;;;;;;7.60;6.57;;;13.70;99.90;;;;;;5053429;28;20044;-74
2022/06/28 01:11:18;;;;;;;10.40;6.07;;;13.70;99.90;;;;;;5069470;28;20044;-74
2022/06/28 01:13:57;;;;;;;8.95;6.45;;;13.70;99.90;;;;;;5053512;28;20115;-74
2022/06/28 01:16:23;;;;;;;7.07;6.32;;;13.90;99.90;;;;;;5086348;28;20052;-74
2022/06/28 01:18:49;;;;;;;7.93;6.82;;;13.70;99.90;;;;;;5086367;28;20040;-74
2022/06/28 01:21:17;;;;;;;6.53;5.93;;;13.60;99.90;;;;;;5059056;28;20130;-74
2022/06/28 01:23:45;;;;;;;9.88;6.65;;;14.10;99.90;;;;;;5087384;28;20154;-74
2022/06/28 01:26:15;;;;;;;6.85;6.20;;;13.50;99.90;;;;;;5076189;28;20055;-74
2022/06/28 01:28:42;;;;;;;6.95;5.60;;;13.50;99.90;;;;;;5086855;28;20131;-74
2022/06/28 01:31:08;;;;;;;7.40;6.70;;;13.60;99.90;;;;;;5072354;28;20139;-74
2022/06/28 01:33:36;;;;;;;8.63;6.70;;;13.50;99.90;;;;;;5053623;28;20122;-74
2022/06/28 01:36:04;;;;;;;6.78;5.32;;;14.10;99.90;;;;;;5086012;28;20075;-74
2022/06/28 01:38:30;;;;;;;8.82;6.07;;;13.50;99.90;;;;;;5068205;28;20048;-74
2022/06/28 01:40:57;;;;;;;6.47;5.85;;;13.50;99.90;;;;;;5067775;28;20474;-74
2022/06/28 01:43:24;;;;;;;7.65;6.43;;;13.50;99.90;;;;;;5085177;28;20221;-73
2022/06/28 01:45:51;;;;;;;7.43;5.65;;;13.50;99.90;;;;;;5079354;28;20032;-74
2022/06/28 01:48:20;;;;;;;8.13;5.60;;;13.50;99.90;;;;;;5064498;28;20411;-74
2022/06/28 01:50:47;;;;;;;7.68;5.80;;;13.50;99.90;;;;;;5068200;28;20391;-74
2022/06/28 01:53:14;;;;;;;8.85;5.80;;;13.50;99.90;;;;;;5068107;28;20427;-74
2022/06/28 01:55:41;;;;;;;6.63;5.60;;;13.50;99.90;;;;;;5084901;28;20047;-74
2022/06/28 01:58:07;;;;;;;6.20;5.15;;;13.50;99.90;;;;;;5050682;28;20040;-74
2022/06/28 02:00:33;;;;;;;11.23;6.55;;;13.40;99.90;;;;;;5066706;28;20040;-74
2022/06/28 02:02:59;;;;;;;8.85;5.22;;;13.50;99.90;;;;;;5054483;28;20048;-74
2022/06/28 02:05:25;;;;;;;6.18;5.57;;;13.40;99.90;;;;;;5053875;28;20044;-74
2022/06/28 02:07:52;;;;;;;9.02;5.32;;;13.40;99.90;;;;;;5085560;28;20109;-74
2022/06/28 02:10:19;;;;;;;10.32;6.90;;;13.40;99.90;;;;;;5087075;28;20118;-74
2022/06/28 02:12:44;;;;;;;7.78;5.20;;;13.30;99.90;;;;;;5073062;28;20051;-74
2022/06/28 02:15:11;;;;;;;9.18;6.78;;;13.30;99.90;;;;;;5086212;28;20388;-74
2022/06/28 02:17:37;;;;;;;6.55;5.88;;;13.20;99.90;;;;;;5071852;28;20154;-74
2022/06/28 02:20:04;;;;;;;6.75;6.07;;;13.30;99.90;;;;;;5085178;28;20604;-74
2022/06/28 02:22:30;;;;;;;6.35;5.72;;;13.30;99.90;;;;;;5076336;28;20040;-74
2022/06/28 02:24:55;;;;;;;5.82;5.03;;;13.30;99.90;;;;;;5085689;28;20055;-74
2022/06/28 02:27:21;;;;;;;8.85;6.55;;;13.30;99.90;;;;;;5087023;28;20052;-73
2022/06/28 02:29:47;;;;;;;6.25;5.65;;;14.20;99.90;;;;;;5074853;28;20059;-74
2022/06/28 02:32:13;;;;;;;6.65;6.03;;;13.30;99.90;;;;;;5069373;28;20051;-74
2022/06/28 02:40:21;;;;;;;8.05;6.25;;;13.50;99.90;;;;;;5084048;28;20052;-74
2022/06/28 02:42:47;;;;;;;6.75;6.15;;;13.20;99.90;;;;;;5081916;28;20036;-74
2022/06/28 02:45:13;;;;;;;8.07;5.45;;;13.20;99.90;;;;;;5047558;28;20072;-74
2022/06/28 02:47:39;;;;;;;8.63;6.32;;;13.30;99.90;;;;;;5065446;28;20078;-74
2022/06/28 02:50:06;;;;;;;7.93;5.93;;;13.20;99.90;;;;;;5083621;28;20032;-74
2022/06/28 02:52:32;;;;;;;9.30;5.90;;;13.10;99.90;;;;;;5050701;28;20047;-74
2022/06/28 02:54:57;;;;;;;6.45;5.82;;;13.20;99.90;;;;;;5050076;28;20044;-74
2022/06/28 02:57:23;;;;;;;6.97;5.75;;;13.20;99.90;;;;;;5066500;28;20471;-73
2022/06/28 02:59:49;;;;;;;7.20;5.45;;;13.10;99.90;;;;;;5065626;28;20036;-74
2022/06/28 03:02:14;;;;;;;11.63;5.70;;;14.20;99.90;;;;;;5046267;28;20616;-73
2022/06/28 03:04:40;;;;;;;8.23;6.22;;;13.00;99.90;;;;;;5062273;28;20455;-73
2022/06/28 03:07:06;;;;;;;11.40;6.82;;;13.00;99.90;;;;;;5067470;28;20036;-74
2022/06/28 03:09:31;;;;;;;10.35;5.63;;;13.00;99.90;;;;;;5083704;28;20071;-74
2022/06/28 03:11:57;;;;;;;8.65;5.93;;;14.30;99.90;;;;;;5085544;28;20044;-74
2022/06/28 03:14:23;;;;;;;9.40;5.72;;;13.10;99.90;;;;;;5066300;28;20072;-74
2022/06/28 03:16:49;;;;;;;10.00;5.80;;;13.10;99.90;;;;;;5053146;28;20473;-74
2022/06/28 03:19:14;;;;;;;12.00;6.47;;;13.10;99.90;;;;;;5066005;28;20471;-74
2022/06/28 03:21:40;;;;;;;9.25;6.50;;;13.00;99.90;;;;;;5067325;28;20071;-74
2022/06/28 03:24:06;;;;;;;8.50;6.05;;;13.00;99.90;;;;;;5049827;28;20084;-74
2022/06/28 03:26:32;;;;;;;8.00;5.78;;;12.90;99.90;;;;;;5066305;28;20101;-74
2022/06/28 03:28:58;;;;;;;7.90;5.90;;;13.00;99.90;;;;;;5048431;28;20036;-74
2022/06/28 03:31:24;;;;;;;6.93;5.60;;;12.70;99.90;;;;;;5068897;28;20028;-74
2022/06/28 03:33:49;;;;;;;6.57;5.30;;;12.90;99.90;;;;;;5045403;28;20483;-75
2022/06/28 03:36:15;;;;;;;6.78;6.07;;;12.90;99.90;;;;;;5082343;28;20044;-74
2022/06/28 03:38:41;;;;;;;5.78;4.85;;;12.90;99.90;;;;;;5084678;28;20081;-75
2022/06/28 03:41:07;;;;;;;5.57;5.07;;;12.90;99.90;;;;;;5066915;28;20036;-74
2022/06/28 03:43:32;;;;;;;6.15;5.53;;;14.10;99.90;;;;;;5065252;28;20052;-74
2022/06/28 03:45:58;;;;;;;7.10;5.45;;;12.90;99.90;;;;;;5050617;28;20044;-72
2022/06/28 03:48:24;;;;;;;9.00;5.60;;;12.90;99.90;;;;;;5062781;28;20102;-73
2022/06/28 03:50:49;;;;;;;7.97;5.28;;;12.90;99.90;;;;;;5066428;28;20063;-73
2022/06/28 03:53:15;;;;;;;7.53;5.10;;;12.90;99.90;;;;;;5035219;28;20067;-73
2022/06/28 03:55:41;;;;;;;7.40;5.32;;;14.00;99.90;;;;;;5049612;28;20510;-73
2022/06/28 03:58:06;;;;;;;7.53;5.75;;;12.90;99.90;;;;;;5080955;28;20051;-73
2022/06/28 04:00:32;;;;;;;6.05;5.50;;;14.20;99.90;;;;;;5065805;28;20040;-73
2022/06/28 04:03:00;;;;;;;9.05;5.60;;;13.40;99.90;;;;;;5068833;28;20048;-73
2022/06/28 04:05:26;;;;;;;5.65;5.10;;;13.40;99.90;;;;;;5054949;28;20425;-73
2022/06/28 04:07:51;;;;;;;6.55;4.90;;;12.90;99.90;;;;;;5055437;28;20039;-74
2022/06/28 04:10:17;;;;;;;9.75;5.75;;;12.80;99.90;;;;;;5058492;28;20044;-74
2022/06/28 04:12:43;;;;;;;5.32;4.72;;;12.90;99.90;;;;;;5088946;28;20039;-74
2022/06/28 04:15:09;;;;;;;9.52;5.25;;;12.90;99.90;;;;;;5088844;28;20047;-74
2022/06/28 04:17:50;;;;;;;7.10;5.18;;;12.90;99.90;;;;;;5088896;28;20040;-74
2022/06/28 04:20:18;;;;;;;8.38;5.40;;;12.90;99.90;;;;;;5041788;28;20044;-74
2022/06/28 04:22:44;;;;;;;7.63;4.75;;;12.90;99.90;;;;;;5088094;28;20047;-74
2022/06/28 04:25:10;;;;;;;9.68;5.03;;;12.90;99.90;;;;;;5075730;28;20643;-73
2022/06/28 04:27:36;;;;;;;6.88;4.85;;;12.90;99.90;;;;;;5075401;28;20605;-73
2022/06/28 04:30:03;;;;;;;9.65;5.82;;;13.10;99.90;;;;;;5074965;28;20581;-73
2022/06/28 04:32:29;;;;;;;8.25;5.22;;;12.90;99.90;;;;;;5054729;28;20040;-73
2022/06/28 04:34:56;;;;;;;7.40;5.80;;;12.90;99.90;;;;;;5086862;28;20051;-73
2022/06/28 04:37:21;;;;;;;10.32;5.35;;;12.80;99.90;;;;;;5069785;28;20096;-73
2022/06/28 04:39:47;;;;;;;7.75;5.68;;;12.90;99.90;;;;;;5089304;28;20032;-73
2022/06/28 04:42:13;;;;;;;7.10;5.13;;;12.90;99.90;;;;;;5071862;28;20051;-73
2022/06/28 04:44:42;;;;;;;9.68;5.53;;;12.90;99.90;;;;;;5087657;28;20044;-79
2022/06/28 04:47:08;;;;;;;6.38;5.35;;;13.00;99.90;;;;;;5045743;28;20494;-81
2022/06/28 04:49:34;;;;;;;10.45;5.20;;;13.00;99.90;;;;;;5047389;28;20487;-75
2022/06/28 04:52:00;;;;;;;11.73;5.28;;;13.00;99.90;;;;;;5066276;28;20060;-82
2022/06/28 04:54:26;;;;;;;12.57;5.88;;;13.10;99.90;;;;;;5068329;28;20052;-80
2022/06/28 04:56:52;;;;;;;11.38;4.24;;;13.30;99.90;;;;;;4380940;28;10021581;-80
2022/06/28 04:59:18;;;;;;;7.50;5.28;;;13.00;99.90;;;;;;5055146;28;20046;-80
2022/06/28 05:01:47;;;;;;;8.13;4.53;;;13.00;99.90;;;;;;5067500;28;20059;-81
2022/06/28 05:04:13;;;;;;;5.90;4.63;;;14.10;99.90;;;;;;5044447;28;20044;-80
2022/06/28 05:06:39;;;;;;;11.57;7.00;;;13.00;99.90;;;;;;5068196;28;20105;-79
2022/06/28 05:09:04;;;;;;;20.42;13.57;;;13.00;99.90;;;;;;5050790;28;20471;-82
2022/06/28 05:11:31;;;;;;;10.80;6.15;;;13.10;99.90;;;;;;5051144;28;20105;-81
2022/06/28 05:14:00;;;;;;;11.10;5.60;;;13.10;99.90;;;;;;5087107;28;20048;-78
2022/06/28 05:16:26;;;;;;;8.50;4.85;;;12.50;99.90;;;;;;5066387;28;20048;-81
2022/06/28 05:18:51;;;;;;;9.40;5.10;;;13.20;99.90;;;;;;5067638;28;20402;-78
2022/06/28 05:21:17;;;;;;;12.45;5.45;;;13.20;99.90;;;;;;5082371;28;20035;-78
2022/06/28 05:23:43;;;;;;;11.20;4.97;;;13.30;99.90;;;;;;5102704;28;20024;-80
2022/06/28 05:26:09;;;;;;;7.95;4.97;;;13.30;99.90;;;;;;5067899;28;20048;-77
2022/06/28 05:28:34;;;;;;;13.27;4.65;;;13.40;99.90;;;;;;5049954;28;20064;-77
2022/06/28 05:31:01;;;;;;;13.40;5.40;;;14.30;99.90;;;;;;5050521;28;20044;-75
2022/06/28 05:33:26;;;;;;;11.95;4.93;;;13.50;99.90;;;;;;5051720;28;20036;-77
2022/06/28 05:35:52;;;;;;;11.27;5.13;;;13.60;99.90;;;;;;5068841;28;20043;-75
2022/06/28 05:38:18;;;;;;;8.32;4.72;;;13.60;99.90;;;;;;5067391;28;20183;-74
2022/06/28 05:40:44;;;;;;;10.48;4.47;;;13.60;99.90;;;;;;5052603;28;20082;-75
2022/06/28 05:43:09;;;;;;;11.75;5.68;;;14.30;99.90;;;;;;5069188;28;20032;-75
2022/06/28 05:45:35;;;;;;;10.25;4.55;;;13.70;99.90;;;;;;5046179;28;20122;-76
2022/06/28 05:48:01;;;;;;;9.25;4.78;;;14.60;99.90;;;;;;5067575;28;20052;-75
2022/06/28 05:50:27;;;;;;;11.10;6.22;;;13.70;99.90;;;;;;5068185;28;20098;-76
2022/06/28 05:52:59;;;;;;;13.27;6.03;;;15.10;99.90;;;;;;5085518;28;20059;-77
2022/06/28 05:55:25;;;;;;;11.38;4.80;;;13.80;99.90;;;;;;5067557;28;20040;-75
2022/06/28 05:57:51;;;;;;;10.52;5.18;;;13.90;99.90;;;;;;5068132;28;20052;-75
2022/06/28 06:00:17;;;;;;;7.15;4.25;;;14.80;99.90;;;;;;5070862;28;20040;-77
2022/06/28 06:02:43;;;;;;;5.90;3.85;;;14.00;99.90;;;;;;5050298;28;20036;-76
2022/06/28 06:05:11;;;;;;;8.23;3.88;;;14.00;99.90;;;;;;5089557;28;20475;-75
2022/06/28 06:07:37;;;;;;;9.00;4.38;;;14.10;99.90;;;;;;5070865;28;20036;-75
2022/06/28 06:10:03;;;;;;;10.05;3.75;;;14.20;99.90;;;;;;5049922;28;20543;-74
2022/06/28 06:12:28;;;;;;;7.72;3.58;;;14.20;99.90;;;;;;5081337;28;20136;-74
2022/06/28 06:14:54;;;;;;;7.72;3.92;;;14.30;99.90;;;;;;5066362;28;20159;-75
2022/06/28 06:17:21;;;;;;;7.95;4.40;;;14.40;99.90;;;;;;5086760;28;20086;-77
2022/06/28 06:19:47;;;;;;;8.90;4.63;;;14.40;99.90;;;;;;5065597;28;20119;-73
2022/06/28 06:22:13;;;;;;;6.22;4.13;;;15.50;99.90;;;;;;5065727;28;20123;-76
2022/06/28 06:24:39;;;;;;;11.90;7.75;;;14.50;99.90;;;;;;5085070;28;20051;-74
2022/06/28 06:27:04;;;;;;;12.52;7.07;;;14.50;99.90;;;;;;5061357;28;20479;-76
2022/06/28 06:29:30;;;;;;;8.15;4.57;;;14.50;99.90;;;;;;5066010;28;20094;-75
2022/06/28 06:31:57;;;;;;;11.88;4.43;;;14.60;99.90;;;;;;5086809;28;20044;-74
2022/06/28 06:34:23;;;;;;;10.75;4.60;;;15.40;99.90;;;;;;4731873;28;10000208;-74
2022/06/28 06:36:48;;;;;;;10.57;4.13;;;14.80;99.90;;;;;;5099021;28;20052;-77
2022/06/28 06:39:14;;;;;;;8.20;4.40;;;15.70;99.90;;;;;;5065542;28;20048;-80
2022/06/28 06:41:40;;;;;;;8.65;4.07;;;14.90;99.90;;;;;;5067108;28;20052;-79
2022/06/28 06:44:06;;;;;;;9.35;3.05;;;15.10;99.90;;;;;;5086368;28;20127;-78
2022/06/28 06:46:31;;;;;;;8.88;3.47;;;15.00;99.90;;;;;;5086982;28;20119;-78
2022/06/28 06:48:57;;;;;;;8.32;3.10;;;16.10;99.90;;;;;;5083851;28;20131;-79
2022/06/28 06:51:24;;;;;;;11.27;3.33;;;16.10;99.90;;;;;;5081532;28;20072;-78
2022/06/28 06:53:49;;;;;;;9.30;2.85;;;15.20;99.90;;;;;;5050936;28;20543;-79
2022/06/28 06:56:15;;;;;;;6.43;3.33;;;15.20;99.90;;;;;;5068006;28;20131;-79
2022/06/28 06:58:41;;;;;;;9.55;3.15;;;15.50;99.90;;;;;;5065098;28;20043;-79
2022/06/28 07:01:07;;;;;;;10.10;3.03;;;15.40;99.90;;;;;;5049933;28;20044;-77
2022/06/28 07:03:34;;;;;;;12.88;4.47;;;16.20;99.90;;;;;;5066655;28;20048;-79
2022/06/28 07:05:59;;;;;;;6.57;3.28;;;15.80;99.90;;;;;;5066622;28;20091;-78
2022/06/28 07:08:25;;;;;;;11.57;4.38;;;15.50;99.90;;;;;;5050494;28;20495;-80
2022/06/28 07:10:51;;;;;;;6.70;3.15;;;15.50;99.90;;;;;;5047207;28;20047;-79
2022/06/28 07:13:16;;;;;;;14.60;3.22;;;15.50;99.90;;;;;;5082209;28;20036;-79
2022/06/28 07:15:42;;;;;;;11.25;3.22;;;16.30;99.90;;;;;;5078764;28;20380;-75
2022/06/28 07:18:08;;;;;;;10.20;3.35;;;15.90;99.90;;;;;;5062891;28;20122;-74
2022/06/28 07:20:33;;;;;;;9.38;3.65;;;16.80;99.90;;;;;;5085862;28;20116;-74
2022/06/28 07:22:59;;;;;;;9.80;3.20;;;15.80;99.90;;;;;;5082444;28;20127;-73
2022/06/28 07:25:26;;;;;;;8.75;2.75;;;15.90;99.90;;;;;;5083770;28;20048;-78
2022/06/28 07:27:51;;;;;;;7.03;2.72;;;15.90;99.90;;;;;;5086181;28;20044;-75
2022/06/28 07:30:17;;;;;;;11.30;2.65;;;16.00;99.90;;;;;;5050466;28;20044;-76
2022/06/28 07:32:43;;;;;;;8.57;2.65;;;16.90;99.90;;;;;;5069392;28;20038;-81
2022/06/28 07:35:09;;;;;;;18.52;6.85;;;16.10;99.90;;;;;;5065254;28;20059;-79
2022/06/28 07:37:36;;;;;;;14.73;4.50;;;16.00;99.90;;;;;;5072732;28;20046;-75
2022/06/28 07:40:03;;;;;;;10.68;2.95;;;16.10;99.90;;;;;;5090028;28;20142;-73
2022/06/28 07:42:30;;;;;;;13.68;2.83;;;16.10;99.90;;;;;;4718121;28;9999964;-74
2022/06/28 07:44:56;;;;;;;7.90;1.65;;;16.80;99.90;;;;;;5086241;28;20040;-73
2022/06/28 07:47:21;;;;;;;7.90;2.15;;;16.40;99.90;;;;;;5073502;28;20040;-74
2022/06/28 07:52:34;;;;;;;9.80;1.60;;;16.20;99.90;;;;;;5067072;28;20060;-75
2022/06/28 07:55:00;;;;;;;9.85;1.65;;;16.30;99.90;;;;;;5086827;28;20073;-74
2022/06/28 07:57:27;;;;;;;5.43;1.20;;;16.30;99.90;;;;;;5087731;28;20052;-74
2022/06/28 07:59:53;;;;;;;8.25;1.50;;;16.30;99.90;;;;;;5090555;28;20044;-74
2022/06/28 08:02:19;;;;;;;6.50;1.60;;;16.30;99.90;;;;;;5055250;28;20040;-74
2022/06/28 08:04:48;;;;;;;3.58;1.00;;;16.40;99.90;;;;;;5089873;28;20059;-75
2022/06/28 08:07:13;;;;;;;19.98;2.08;;;16.50;99.90;;;;;;5071320;28;20526;-74
2022/06/28 08:09:39;;;;;;;10.10;2.03;;;16.60;99.90;;;;;;5073415;28;20036;-73
2022/06/28 08:12:06;;;;;;;7.50;1.25;;;17.10;99.90;;;;;;5088661;28;20075;-74
2022/06/28 08:14:32;;;;;;;8.88;1.73;;;16.70;99.90;;;;;;5090070;28;20045;-72
2022/06/28 08:16:58;;;;;;;8.65;1.67;;;17.20;99.90;;;;;;5057501;28;20411;-74
2022/06/28 08:19:24;;;;;;;4.32;1.33;;;16.80;99.90;;;;;;5088370;28;20046;-73
2022/06/28 08:21:50;;;;;;;6.88;1.23;;;16.90;99.90;;;;;;5090940;28;20036;-74
2022/06/28 08:24:17;;;;;;;10.23;1.55;;;17.20;99.90;;;;;;5071508;28;20048;-74
2022/06/28 08:26:42;;;;;;;6.22;1.20;;;17.70;99.90;;;;;;5053367;28;20479;-74
2022/06/28 08:29:09;;;;;;;8.35;1.30;;;17.60;99.90;;;;;;5072200;28;20036;-75
2022/06/28 08:31:39;;;;;;;12.20;1.48;;;16.80;99.90;;;;;;5089390;28;20036;-75
2022/06/28 08:34:06;;;;;;;9.90;1.67;;;16.80;99.90;;;;;;5054712;28;20071;-75
2022/06/28 08:36:32;;;;;;;6.93;0.80;;;16.80;99.90;;;;;;5054839;28;20040;-76
2022/06/28 08:38:57;;;;;;;6.28;1.10;;;16.90;99.90;;;;;;5091485;28;20070;-73
2022/06/28 08:41:27;;;;;;;8.27;2.05;;;17.00;99.90;;;;;;5072252;28;20110;-75
2022/06/28 08:43:54;;;;;;;4.90;0.93;;;17.00;99.90;;;;;;5055488;28;20678;-74
2022/06/28 08:46:20;;;;;;;8.00;1.42;;;17.50;99.90;;;;;;5091628;28;20066;-73
2022/06/28 08:48:52;;;;;;;6.43;1.73;;;17.90;99.90;;;;;;5070675;28;20483;-73
2022/06/28 08:51:19;;;;;;;9.20;1.63;;;17.80;99.90;;;;;;5069394;28;20392;-74
2022/06/28 08:53:47;;;;;;;5.13;1.15;;;17.60;99.90;;;;;;5055178;28;20044;-73
2022/06/28 08:56:13;;;;;;;7.35;1.40;;;17.40;99.90;;;;;;5087152;28;20032;-74
2022/06/28 08:58:44;;;;;;;9.65;1.20;;;17.30;99.90;;;;;;5092860;28;20036;-74
2022/06/28 09:01:11;;;;;;;4.95;1.05;;;17.70;99.90;;;;;;5071311;28;20044;-75
2022/06/28 09:03:38;;;;;;;8.00;1.70;;;17.60;99.90;;;;;;5090090;28;20039;-72
2022/06/28 09:06:05;;;;;;;5.30;1.77;;;18.00;99.90;;;;;;5091754;28;20565;-74
2022/06/28 09:08:30;;;;;;;12.80;5.55;;;17.50;99.90;;;;;;5074074;28;20046;-73
2022/06/28 09:10:56;;;;;;;8.70;1.23;;;18.00;99.90;;;;;;5072976;28;20044;-74
2022/06/28 09:13:22;;;;;;;8.73;2.47;;;17.50;99.90;;;;;;5072421;28;20048;-74
2022/06/28 09:15:53;;;;;;;8.68;1.38;;;17.60;99.90;;;;;;5087761;28;20090;-73
2022/06/28 09:18:25;;;;;;;7.20;1.80;;;17.40;99.90;;;;;;5067970;28;20044;-73
2022/06/28 09:20:53;;;;;;;7.43;1.38;;;18.10;99.90;;;;;;5065765;28;20047;-72
2022/06/28 09:23:27;;;;;;;6.18;1.33;;;17.40;99.90;;;;;;5068454;28;20101;-73
2022/06/28 09:25:56;;;;;;;5.10;1.33;;;17.50;99.90;;;;;;5089675;28;20458;-73
2022/06/28 09:28:28;;;;;;;8.38;1.75;;;17.40;99.90;;;;;;5070591;28;20406;-74
2022/06/28 09:31:14;;;;;;;7.10;1.67;;;17.90;99.90;;;;;;5073397;28;20044;-74
2022/06/28 09:33:40;;;;;;;12.27;1.42;;;17.50;99.90;;;;;;5085821;28;20408;-73
2022/06/28 09:36:09;;;;;;;5.47;1.15;;;17.60;99.90;;;;;;5068430;28;20125;-73
2022/06/28 09:38:34;;;;;;;6.13;1.20;;;17.40;99.90;;;;;;5069048;28;20182;-73
2022/06/28 09:41:00;;;;;;;7.13;1.58;;;17.70;99.90;;;;;;5087423;28;20140;-73
2022/06/28 09:43:32;;;;;;;14.55;2.13;;;17.90;99.90;;;;;;5070999;28;20058;-72
2022/06/28 09:45:58;;;;;;;8.65;1.90;;;17.50;99.90;;;;;;5070811;28;20471;-73
2022/06/28 09:48:23;;;;;;;5.85;1.60;;;17.60;99.90;;;;;;5072417;28;20052;-73
2022/06/28 09:50:57;;;;;;;11.13;1.88;;;17.80;99.90;;;;;;5088898;28;20028;-73
2022/06/28 09:53:27;;;;;;;6.40;1.45;;;17.90;99.90;;;;;;5084573;28;20069;-73
2022/06/28 09:55:53;;;;;;;6.00;1.17;;;18.10;99.90;;;;;;5091059;28;20036;-73
2022/06/28 09:58:20;;;;;;;4.82;0.80;;;18.40;99.90;;;;;;5082629;28;20040;-74
2022/06/28 10:00:46;;;;;;;6.20;1.02;;;18.60;99.90;;;;;;5070225;28;20479;-74
2022/06/28 10:03:12;;;;;;;9.77;1.50;;;18.30;99.90;;;;;;5071031;28;20052;-74
2022/06/28 10:05:38;;;;;;;7.85;1.65;;;18.30;99.90;;;;;;5087379;28;20571;-74
2022/06/28 10:08:05;;;;;;;7.35;1.58;;;18.40;99.90;;;;;;5089479;28;20032;-73
2022/06/28 10:10:32;;;;;;;8.93;1.20;;;18.50;99.90;;;;;;5089642;28;20040;-74
2022/06/28 10:15:52;;;;;;;6.80;1.40;;;18.60;99.90;;;;;;5090305;28;20482;-74
2022/06/28 10:18:20;;;;;;;8.80;1.00;;;18.80;99.90;;;;;;5054747;28;20532;-74
2022/06/28 10:20:47;;;;;;;7.85;1.50;;;18.60;99.90;;;;;;5087793;28;20040;-75
2022/06/28 10:23:25;;;;;;;6.53;1.33;;;18.90;99.90;;;;;;5086088;28;20052;-75
2022/06/28 10:26:02;;;;;;;3.97;1.08;;;19.10;99.90;;;;;;5084210;28;20052;-73
2022/06/28 10:28:38;;;;;;;4.60;1.40;;;19.20;99.90;;;;;;5086351;28;20059;-73
2022/06/28 10:31:24;;;;;;;8.15;1.23;;;19.20;99.90;;;;;;4736324;28;10000100;-73
2022/06/28 10:33:54;;;;;;;8.57;1.42;;;19.20;99.90;;;;;;5063327;28;20044;-73
2022/06/28 10:36:25;;;;;;;4.13;1.27;;;19.20;99.90;;;;;;5086498;28;20097;-73
2022/06/28 10:39:08;;;;;;;5.38;1.33;;;19.10;99.90;;;;;;5083316;28;20059;-73
2022/06/28 10:41:43;;;;;;;9.30;1.08;;;19.10;99.90;;;;;;5068996;28;20047;-73
2022/06/28 10:44:22;;;;;;;7.72;1.55;;;19.00;99.90;;;;;;5068299;28;20139;-73
2022/06/28 10:47:05;;;;;;;9.38;1.65;;;19.00;99.90;;;;;;5065844;28;20063;-73
2022/06/28 10:49:45;;;;;;;6.32;1.33;;;19.00;99.90;;;;;;5050785;28;20447;-73
2022/06/28 10:52:34;;;;;;;6.18;1.35;;;19.00;99.90;;;;;;5067926;28;20072;-73
2022/06/28 10:55:03;;;;;;;6.97;0.95;;;19.00;99.90;;;;;;5066552;28;20051;-74
2022/06/28 10:57:43;;;;;;;5.88;1.33;;;19.10;99.90;;;;;;5085629;28;20047;-73
2022/06/28 11:00:21;;;;;;;7.43;1.20;;;19.10;99.90;;;;;;5068264;28;20398;-73
2022/06/28 11:02:50;;;;;;;7.50;1.52;;;19.30;99.90;;;;;;5084551;28;20055;-73
2022/06/28 11:05:17;;;;;;;5.35;1.05;;;19.10;99.90;;;;;;5049526;28;20039;-72
2022/06/28 11:07:59;;;;;;;7.97;0.90;;;19.10;99.90;;;;;;5068931;28;20115;-73
2022/06/28 11:10:26;;;;;;;9.27;3.83;;;19.30;99.90;;;;;;5086579;28;20557;-74
2022/06/28 11:12:51;;;;;;;9.15;1.40;;;19.70;99.90;;;;;;5083274;28;20052;-73
2022/06/28 11:15:29;;;;;;;7.30;2.40;;;19.40;99.90;;;;;;5069915;28;20109;-73
2022/06/28 11:17:56;;;;;;;7.35;1.17;;;19.50;99.90;;;;;;5090075;28;20048;-74
2022/06/28 11:20:28;;;;;;;5.03;1.30;;;19.70;99.90;;;;;;5088288;28;20358;-74
2022/06/28 11:22:53;;;;;;;4.30;1.33;;;19.90;99.90;;;;;;5093250;28;20086;-73
2022/06/28 11:25:24;;;;;;;3.33;0.85;;;20.00;99.90;;;;;;5064923;28;20095;-73
2022/06/28 11:27:56;;;;;;;4.60;0.82;;;20.20;99.90;;;;;;5070612;28;20086;-73
2022/06/28 11:30:28;;;;;;;4.45;1.10;;;20.30;99.90;;;;;;5093849;28;20620;-72
2022/06/28 11:32:59;;;;;;;5.03;0.90;;;20.50;99.90;;;;;;5067995;28;20047;-73
2022/06/28 11:35:28;;;;;;;3.83;0.73;;;20.50;99.90;;;;;;5087225;28;20051;-73
2022/06/28 11:38:07;;;;;;;6.82;1.30;;;20.70;99.90;;;;;;5053144;28;20504;-74
2022/06/28 11:40:41;;;;;;;5.32;1.05;;;20.80;99.90;;;;;;5064731;28;20517;-74
2022/06/28 11:43:12;;;;;;;4.72;1.33;;;20.80;99.90;;;;;;5065704;28;20499;-74
2022/06/28 11:45:43;;;;;;;6.20;0.85;;;20.70;99.90;;;;;;5062010;28;20410;-74
2022/06/28 11:48:14;;;;;;;4.07;1.00;;;20.80;99.90;;;;;;5049949;28;20108;-75
2022/06/28 11:50:42;;;;;;;5.50;1.20;;;20.80;99.90;;;;;;5066850;28;20436;-75
2022/06/28 11:53:09;;;;;;;10.63;5.40;;;20.90;99.90;;;;;;5077712;28;20066;-73
2022/06/28 11:55:38;;;;;;;6.78;2.17;;;20.90;99.90;;;;;;5085052;28;20048;-73
2022/06/28 11:58:20;;;;;;;14.95;8.15;;;21.00;99.90;;;;;;5084893;28;20492;-73
2022/06/28 12:01:12;;;;;;;6.15;1.30;;;21.10;99.90;;;;;;5065671;28;20077;-74
2022/06/28 12:03:41;;;;;;;8.98;1.05;;;21.30;99.90;;;;;;5061158;28;20052;-73
2022/06/28 12:06:08;;;;;;;5.45;1.30;;;21.40;99.90;;;;;;5066656;28;20032;-73
2022/06/28 12:08:58;;;;;;;3.75;0.73;;;21.50;99.90;;;;;;5087241;28;20044;-75
2022/06/28 12:11:29;;;;;;;5.50;1.17;;;21.60;99.90;;;;;;5089020;28;20394;-77
2022/06/28 12:14:03;;;;;;;5.18;1.40;;;21.70;99.90;;;;;;5068453;28;20052;-77
2022/06/28 12:16:34;;;;;;;6.00;0.90;;;22.00;99.90;;;;;;5054679;28;20040;-77
2022/06/28 12:19:01;;;;;;;4.85;0.65;;;21.90;99.90;;;;;;5049886;28;20032;-77
2022/06/28 12:21:28;;;;;;;6.75;1.38;;;22.00;99.90;;;;;;5070003;28;20048;-78
2022/06/28 12:23:55;;;;;;;9.88;1.45;;;22.20;99.90;;;;;;5065490;28;20671;-76
2022/06/28 12:26:35;;;;;;;5.55;1.15;;;22.30;99.90;;;;;;5052791;28;20133;-76
2022/06/28 12:29:01;;;;;;;5.85;0.70;;;22.40;99.90;;;;;;5069063;28;20056;-77
2022/06/28 12:31:27;;;;;;;6.20;1.30;;;22.50;99.70;;;;;;5052319;28;20036;-77
2022/06/28 12:33:52;;;;;;;7.95;0.98;;;22.60;99.00;;;;;;5055442;28;20106;-78
2022/06/28 12:36:18;;;;;;;7.85;0.90;;;22.70;97.60;;;;;;5091627;28;20376;-77
2022/06/28 12:38:44;;;;;;;7.65;1.00;;;22.70;97.00;;;;;;5055145;28;20040;-78
2022/06/28 12:41:09;;;;;;;2.05;0.80;;;22.80;96.80;;;;;;5090068;28;20059;-77
2022/06/28 12:43:35;;;;;;;4.80;1.17;;;22.90;96.70;;;;;;5073169;28;20490;-77
2022/06/28 12:46:01;;;;;;;6.38;1.17;;;22.70;96.50;;;;;;4761636;28;10001267;-75
2022/06/28 12:48:27;;;;;;;5.25;1.27;;;22.90;96.00;;;;;;5085886;28;20264;-76
2022/06/28 12:50:53;;;;;;;7.38;0.95;;;22.70;96.00;;;;;;5085828;28;20044;-78
2022/06/28 12:53:20;;;;;;;3.05;0.88;;;22.60;95.50;;;;;;5069110;28;20036;-76
2022/06/28 12:55:46;;;;;;;2.33;0.50;;;22.50;95.10;;;;;;5067078;28;20039;-78
2022/06/28 12:58:12;;;;;;;3.47;0.82;;;22.70;95.40;;;;;;5066734;28;20044;-78
2022/06/28 13:00:38;;;;;;;6.00;0.68;;;22.60;95.30;;;;;;5051341;28;20058;-75